logo
Search for airport 
image banner adimage banner adimage banner ad
image banner ad

YXBF - Bicheno Medical

Located in , Australia

ICAO - , IATA -

Data provided by Airmate  

General information

Coordinates: S41°52'17" E148°18'20"
Elevation is 41 feet MSL.
 
View others Airports in Tasmania

Operational data

Special qualification required
Current time UTC:
Current local time:
Weather at : - ( 0 km )
METAR: KM08 220825Z AUTO VRB04KT 10SM BKN047 OVC055 24/17 A2989 RMK A01
View NOTAMs / SUP AIP / TFR affecting this airport [VIEW]
Communications frequencies: [VIEW]

Runways:

Airport contact information

Address: Australia

Satellite view of YXBF